Time;durP1;ratioP1;P1;durP2;ratioP2;P2;SDS_P1;SDS_P2;PMS_P1;PMS_P2;Temp;Humidity;BMP_temperature;BMP_pressure;BME280_temperature;BME280_humidity;BME280_pressure;Samples;Min_cycle;Max_cycle;Signal;HPM_P1;HPM_P2
2022/09/06 00:00:25;;;;;;;;;;;20.80;99.90;;;;;;5024909;28;19948;-68
2022/09/06 00:02:52;;;;;;;;;;;20.80;99.90;;;;;;5031860;28;20554;-68
2022/09/06 00:05:19;;;;;;;;;;;20.60;99.90;;;;;;5026620;28;19929;-68
2022/09/06 00:07:45;;;;;;;;;;;20.60;99.90;;;;;;5032392;28;19925;-68
2022/09/06 00:10:13;;;;;;;;;;;20.50;99.90;;;;;;5028831;28;19924;-68
2022/09/06 00:12:40;;;;;;;;;;;20.50;99.90;;;;;;5026866;28;20289;-68
2022/09/06 00:15:08;;;;;;;;;;;20.50;99.90;;;;;;5031138;28;19994;-66
2022/09/06 00:17:36;;;;;;;;;;;20.40;99.90;;;;;;5023837;28;19932;-67
2022/09/06 00:20:03;;;;;;;;;;;20.40;99.90;;;;;;5031966;28;19924;-68
2022/09/06 00:22:30;;;;;;;;;;;20.40;99.90;;;;;;5020768;28;20456;-68
2022/09/06 00:24:57;;;;;;;;;;;20.40;99.90;;;;;;5022702;28;19925;-67
2022/09/06 00:27:23;;;;;;;;;;;20.40;99.90;;;;;;5027901;28;20472;-67
2022/09/06 00:29:50;;;;;;;;;;;20.30;99.90;;;;;;5024497;28;19932;-67
2022/09/06 00:32:17;;;;;;;;;;;20.30;99.90;;;;;;5028934;28;19925;-66
2022/09/06 00:34:45;;;;;;;;;;;20.10;99.90;;;;;;5024130;28;19929;-66
2022/09/06 00:37:12;;;;;;;;;;;20.10;99.90;;;;;;5024674;28;20447;-67
2022/09/06 00:39:39;;;;;;;;;;;19.90;99.90;;;;;;5029286;28;19929;-67
2022/09/06 00:42:08;;;;;;;;;;;19.80;99.90;;;;;;5024622;28;19929;-67
2022/09/06 00:44:35;;;;;;;;;;;19.80;99.90;;;;;;5030572;28;19925;-67
2022/09/06 00:47:01;;;;;;;;;;;19.70;99.90;;;;;;5025468;28;19933;-67
2022/09/06 00:49:29;;;;;;;;;;;19.70;99.90;;;;;;5034052;28;19933;-68
2022/09/06 00:52:00;;;;;;;;;;;19.70;99.90;;;;;;5027911;28;19925;-67
2022/09/06 00:54:27;;;;;;;;;;;19.50;99.90;;;;;;5023510;28;20297;-67
2022/09/06 00:56:55;;;;;;;;;;;19.40;99.90;;;;;;5026855;28;20407;-67
2022/09/06 00:59:24;;;;;;;;;;;19.30;99.90;;;;;;5023954;28;19924;-67
2022/09/06 01:01:52;;;;;;;;;;;19.10;99.90;;;;;;5031533;28;19925;-67
2022/09/06 01:04:19;;;;;;;;;;;19.00;99.90;;;;;;5025809;28;19929;-67
2022/09/06 01:06:52;;;;;;;;;;;19.10;99.90;;;;;;5026071;28;19932;-67
2022/09/06 01:09:26;;;;;;;;;;;19.20;99.90;;;;;;5024558;28;19932;-66
2022/09/06 01:11:58;;;;;;;;;;;19.20;99.90;;;;;;5018622;28;19925;-67
2022/09/06 01:14:32;;;;;;;;;;;19.20;99.90;;;;;;5029711;28;19929;-67
2022/09/06 01:17:02;;;;;;;;;;;19.10;99.90;;;;;;5030595;28;19947;-67
2022/09/06 01:19:36;;;;;;;;;;;19.00;99.90;;;;;;5022492;28;19975;-67
2022/09/06 01:22:09;;;;;;;;;;;19.00;99.90;;;;;;5031047;28;19933;-67
2022/09/06 01:24:58;;;;;;;;;;;18.90;99.90;;;;;;5011406;28;19964;-67
2022/09/06 01:27:42;;;;;;;;;;;18.90;99.90;;;;;;5024187;28;20027;-67
2022/09/06 01:30:10;;;;;;;;;;;18.80;99.90;;;;;;5026758;28;19976;-67
2022/09/06 01:32:41;;;;;;;;;;;18.90;99.90;;;;;;5021983;28;19948;-68
2022/09/06 01:35:13;;;;;;;;;;;18.80;99.90;;;;;;5027145;28;19932;-67
2022/09/06 01:37:41;;;;;;;;;;;18.90;99.90;;;;;;5019920;28;19940;-67
2022/09/06 01:40:08;;;;;;;;;;;19.00;99.90;;;;;;5030806;28;19945;-67
2022/09/06 01:42:35;;;;;;;;;;;18.90;99.90;;;;;;5025471;28;19925;-67
2022/09/06 01:45:05;;;;;;;;;;;18.90;99.90;;;;;;5028643;28;19924;-68
2022/09/06 01:47:36;;;;;;;;;;;18.90;99.90;;;;;;5020841;28;19925;-67
2022/09/06 01:50:12;;;;;;;;;;;18.90;99.90;;;;;;5022997;28;19925;-67
2022/09/06 01:52:44;;;;;;;;;;;18.90;99.90;;;;;;5019556;28;19975;-67
2022/09/06 01:55:21;;;;;;;;;;;18.90;99.90;;;;;;5022630;28;19925;-67
2022/09/06 01:57:51;;;;;;;;;;;19.00;99.90;;;;;;5028311;28;20025;-67
2022/09/06 02:00:21;;;;;;;;;;;19.00;99.90;;;;;;5017026;28;19929;-67
2022/09/06 02:02:53;;;;;;;;;;;19.00;99.90;;;;;;5028963;28;19925;-67
2022/09/06 02:05:23;;;;;;;;;;;19.10;99.90;;;;;;5016269;28;19929;-68
2022/09/06 02:07:52;;;;;;;;;;;19.20;99.90;;;;;;5032298;28;19974;-67
2022/09/06 02:10:22;;;;;;;;;;;19.20;99.90;;;;;;5026680;28;19933;-67
2022/09/06 02:12:51;;;;;;;;;;;19.10;99.90;;;;;;5025902;28;19997;-67
2022/09/06 02:15:22;;;;;;;;;;;19.10;99.90;;;;;;5019463;28;19929;-68
2022/09/06 02:17:52;;;;;;;;;;;19.00;99.90;;;;;;5023359;28;19975;-67
2022/09/06 02:20:20;;;;;;;;;;;19.00;99.90;;;;;;5029410;28;19954;-67
2022/09/06 02:22:47;;;;;;;;;;;18.90;99.90;;;;;;5028492;28;20374;-68
2022/09/06 02:25:18;;;;;;;;;;;18.90;99.90;;;;;;5015842;28;19926;-65
2022/09/06 02:27:45;;;;;;;;;;;18.80;99.90;;;;;;5030626;28;19932;-67
2022/09/06 02:30:12;;;;;;;;;;;18.60;99.90;;;;;;5027877;28;19975;-67
2022/09/06 02:32:44;;;;;;;;;;;18.50;99.90;;;;;;5033754;28;19925;-67
2022/09/06 02:35:13;;;;;;;;;;;18.50;99.90;;;;;;5022795;28;19933;-67
2022/09/06 02:37:40;;;;;;;;;;;18.40;99.90;;;;;;5034312;28;20002;-67
2022/09/06 02:40:09;;;;;;;;;;;18.40;99.90;;;;;;5031153;28;19928;-67
2022/09/06 02:42:35;;;;;;;;;;;18.20;99.90;;;;;;5035361;28;19924;-67
2022/09/06 02:45:04;;;;;;;;;;;18.10;99.90;;;;;;5032958;28;20330;-67
2022/09/06 02:47:30;;;;;;;;;;;18.10;99.90;;;;;;5019866;28;19928;-65
2022/09/06 02:49:59;;;;;;;;;;;18.30;99.90;;;;;;5033281;28;19924;-67
2022/09/06 02:52:26;;;;;;;;;;;18.30;99.90;;;;;;5027288;28;20459;-67
2022/09/06 02:54:53;;;;;;;;;;;18.30;99.90;;;;;;5030522;28;19932;-67
2022/09/06 02:57:20;;;;;;;;;;;18.20;99.90;;;;;;5028923;28;19929;-66
2022/09/06 02:59:47;;;;;;;;;;;18.10;99.90;;;;;;5028752;28;19929;-67
2022/09/06 03:02:14;;;;;;;;;;;18.10;99.90;;;;;;5030936;28;19925;-67
2022/09/06 03:04:41;;;;;;;;;;;18.10;99.90;;;;;;5019211;28;19929;-67
2022/09/06 03:07:09;;;;;;;;;;;18.10;99.90;;;;;;5032811;28;19925;-67
2022/09/06 03:09:36;;;;;;;;;;;18.10;99.90;;;;;;5030269;28;19925;-67
2022/09/06 03:12:03;;;;;;;;;;;18.10;99.90;;;;;;5034132;28;19970;-67
2022/09/06 03:14:30;;;;;;;;;;;18.10;99.90;;;;;;5021836;28;19929;-67
2022/09/06 03:16:57;;;;;;;;;;;18.00;99.90;;;;;;5027077;28;19925;-67
2022/09/06 03:19:23;;;;;;;;;;;17.90;99.90;;;;;;5028944;28;20351;-67
2022/09/06 03:21:50;;;;;;;;;;;17.80;99.90;;;;;;5026987;28;19933;-67
2022/09/06 03:24:18;;;;;;;;;;;17.60;99.90;;;;;;5024814;28;20297;-67
2022/09/06 03:26:45;;;;;;;;;;;17.70;99.90;;;;;;5030840;28;20304;-66
2022/09/06 03:29:12;;;;;;;;;;;17.70;99.90;;;;;;5026638;28;19929;-67
2022/09/06 03:31:39;;;;;;;;;;;17.60;99.90;;;;;;5034974;28;19925;-67
2022/09/06 03:34:05;;;;;;;;;;;17.50;99.90;;;;;;5023170;28;19925;-67
2022/09/06 03:36:32;;;;;;;;;;;17.40;99.90;;;;;;5032599;28;19925;-67
2022/09/06 03:38:59;;;;;;;;;;;17.30;99.90;;;;;;5027567;28;19930;-67
2022/09/06 03:41:27;;;;;;;;;;;17.30;99.90;;;;;;5025040;28;19929;-64
2022/09/06 03:43:54;;;;;;;;;;;17.20;99.90;;;;;;5030975;28;19933;-67
2022/09/06 03:46:21;;;;;;;;;;;17.20;99.90;;;;;;5025659;28;19933;-67
2022/09/06 03:48:48;;;;;;;;;;;17.10;99.90;;;;;;5033110;28;19940;-67
2022/09/06 03:51:15;;;;;;;;;;;17.10;99.90;;;;;;5027865;28;20015;-68
2022/09/06 03:53:42;;;;;;;;;;;17.10;99.90;;;;;;5035554;28;19924;-68
2022/09/06 03:56:09;;;;;;;;;;;17.00;99.90;;;;;;5027029;28;19925;-68
2022/09/06 03:58:37;;;;;;;;;;;17.00;99.90;;;;;;5028103;28;19925;-67
2022/09/06 04:01:05;;;;;;;;;;;17.00;99.90;;;;;;5028832;28;19983;-67
2022/09/06 04:03:32;;;;;;;;;;;17.00;99.90;;;;;;5017294;28;19980;-67
2022/09/06 04:05:58;;;;;;;;;;;17.00;99.90;;;;;;5028603;28;19925;-67
2022/09/06 04:08:25;;;;;;;;;;;16.90;99.90;;;;;;5028031;28;19933;-67
2022/09/06 04:10:53;;;;;;;;;;;16.80;99.90;;;;;;5034026;28;19931;-67
2022/09/06 04:13:20;;;;;;;;;;;16.80;99.90;;;;;;5026851;28;19925;-67
2022/09/06 04:15:48;;;;;;;;;;;16.90;99.90;;;;;;5024435;28;20332;-67
2022/09/06 04:18:16;;;;;;;;;;;16.90;99.90;;;;;;5026146;28;19929;-67
2022/09/06 04:20:42;;;;;;;;;;;16.80;99.90;;;;;;5032232;28;19925;-67
2022/09/06 04:23:09;;;;;;;;;;;16.80;99.90;;;;;;5026809;28;19929;-66
2022/09/06 04:25:36;;;;;;;;;;;16.80;99.90;;;;;;5011899;28;19932;-67
2022/09/06 04:28:03;;;;;;;;;;;16.70;99.90;;;;;;5020815;28;20343;-67
2022/09/06 04:30:30;;;;;;;;;;;16.70;99.90;;;;;;5040421;28;19924;-66
2022/09/06 04:32:58;;;;;;;;;;;16.70;99.90;;;;;;5026911;28;20286;-67
2022/09/06 04:35:25;;;;;;;;;;;16.70;99.90;;;;;;5024303;28;19933;-67
2022/09/06 04:37:52;;;;;;;;;;;16.70;99.90;;;;;;5028023;28;19933;-67
2022/09/06 04:40:18;;;;;;;;;;;16.70;99.90;;;;;;5023860;28;19925;-67
2022/09/06 04:42:45;;;;;;;;;;;16.70;99.90;;;;;;5022282;28;19925;-66
2022/09/06 04:45:12;;;;;;;;;;;16.60;99.90;;;;;;5028134;28;20409;-67
2022/09/06 04:47:39;;;;;;;;;;;16.60;99.90;;;;;;5022927;28;19979;-68
2022/09/06 04:50:08;;;;;;;;;;;16.60;99.90;;;;;;5025308;28;19932;-66
2022/09/06 04:52:34;;;;;;;;;;;16.60;99.90;;;;;;5019975;28;19929;-67
2022/09/06 04:55:01;;;;;;;;;;;16.70;99.90;;;;;;5023680;28;19930;-67
2022/09/06 04:57:28;;;;;;;;;;;16.70;99.90;;;;;;5022915;28;19925;-67
2022/09/06 04:59:55;;;;;;;;;;;16.70;99.90;;;;;;5024054;28;19925;-66
2022/09/06 05:02:21;;;;;;;;;;;16.70;99.90;;;;;;5013308;28;19975;-68
2022/09/06 05:04:48;;;;;;;;;;;16.70;99.90;;;;;;5016059;28;19925;-67
2022/09/06 05:07:16;;;;;;;;;;;16.70;99.90;;;;;;5023254;28;19938;-67
2022/09/06 05:09:43;;;;;;;;;;;16.70;99.90;;;;;;5019409;28;19933;-68
2022/09/06 05:12:10;;;;;;;;;;;16.80;99.90;;;;;;5023326;28;20355;-67
2022/09/06 05:14:37;;;;;;;;;;;16.80;99.90;;;;;;5023760;28;19925;-66
2022/09/06 05:17:03;;;;;;;;;;;16.90;99.90;;;;;;5022615;28;19924;-69
2022/09/06 05:19:30;;;;;;;;;;;16.90;99.90;;;;;;5020235;28;19925;-67
2022/09/06 05:21:57;;;;;;;;;;;16.90;99.90;;;;;;5021570;28;20520;-65
2022/09/06 05:24:25;;;;;;;;;;;16.90;99.90;;;;;;5024275;28;19929;-69
2022/09/06 05:26:52;;;;;;;;;;;17.00;99.90;;;;;;5026500;28;19929;-64
2022/09/06 05:29:19;;;;;;;;;;;17.00;99.90;;;;;;5025515;28;19931;-66
2022/09/06 05:31:45;;;;;;;;;;;17.00;99.90;;;;;;5029318;28;20339;-66
2022/09/06 05:34:13;;;;;;;;;;;17.10;99.90;;;;;;5024340;28;19933;-65
2022/09/06 05:36:40;;;;;;;;;;;17.20;99.90;;;;;;5019240;28;20016;-67
2022/09/06 05:39:07;;;;;;;;;;;17.20;99.90;;;;;;5017803;28;19964;-68
2022/09/06 05:41:35;;;;;;;;;;;17.20;99.90;;;;;;5022864;28;20004;-68
2022/09/06 05:44:02;;;;;;;;;;;17.20;99.90;;;;;;5019418;28;20316;-67
2022/09/06 05:46:29;;;;;;;;;;;17.20;99.90;;;;;;5023669;28;19928;-67
2022/09/06 05:48:59;;;;;;;;;;;17.10;99.90;;;;;;5023151;28;19964;-67
2022/09/06 05:51:26;;;;;;;;;;;17.10;99.90;;;;;;5026494;28;19925;-67
2022/09/06 05:53:53;;;;;;;;;;;17.10;99.90;;;;;;5025724;28;19932;-67
2022/09/06 05:56:21;;;;;;;;;;;17.10;99.90;;;;;;5023907;28;19925;-68
2022/09/06 05:58:49;;;;;;;;;;;17.20;99.90;;;;;;5019945;28;19925;-67
2022/09/06 06:01:17;;;;;;;;;;;17.20;99.90;;;;;;5024039;28;20286;-67
2022/09/06 06:03:49;;;;;;;;;;;17.30;99.90;;;;;;5026495;28;19925;-67
2022/09/06 06:06:16;;;;;;;;;;;17.30;99.90;;;;;;5030004;28;19925;-67
2022/09/06 06:08:43;;;;;;;;;;;17.40;99.90;;;;;;5027554;28;19929;-67
2022/09/06 06:11:10;;;;;;;;;;;17.50;99.90;;;;;;5028776;28;19925;-67
2022/09/06 06:13:38;;;;;;;;;;;17.50;99.90;;;;;;5032192;28;19928;-67
2022/09/06 06:16:07;;;;;;;;;;;17.60;99.90;;;;;;5021126;28;19925;-69
2022/09/06 06:18:34;;;;;;;;;;;17.80;99.90;;;;;;5026160;28;20355;-67
2022/09/06 06:21:07;;;;;;;;;;;17.90;99.90;;;;;;5031213;28;19929;-67
2022/09/06 06:23:34;;;;;;;;;;;18.00;99.90;;;;;;5023922;28;19925;-67
2022/09/06 06:26:01;;;;;;;;;;;18.10;99.90;;;;;;5028323;28;19925;-67
2022/09/06 06:28:28;;;;;;;;;;;18.20;99.90;;;;;;5027590;28;19933;-70
2022/09/06 06:30:55;;;;;;;;;;;18.40;99.90;;;;;;5023164;28;20347;-67
2022/09/06 06:33:23;;;;;;;;;;;18.50;99.90;;;;;;5032577;28;19925;-68
2022/09/06 06:35:57;;;;;;;;;;;18.60;99.90;;;;;;5031701;28;19925;-67
2022/09/06 06:38:24;;;;;;;;;;;18.80;99.90;;;;;;5031117;28;19928;-67
2022/09/06 06:40:50;;;;;;;;;;;18.90;99.90;;;;;;5022607;28;19926;-68
2022/09/06 06:43:17;;;;;;;;;;;18.90;99.90;;;;;;5013128;28;19929;-67
2022/09/06 06:45:48;;;;;;;;;;;19.00;99.90;;;;;;5020540;28;19932;-67
2022/09/06 06:48:14;;;;;;;;;;;19.10;99.90;;;;;;5020696;28;19995;-67
2022/09/06 06:50:43;;;;;;;;;;;19.20;99.90;;;;;;5025540;28;19924;-67
2022/09/06 06:53:09;;;;;;;;;;;19.20;99.90;;;;;;5029478;28;19931;-68
2022/09/06 06:55:36;;;;;;;;;;;19.30;99.90;;;;;;5026420;28;19936;-67
2022/09/06 06:58:03;;;;;;;;;;;19.40;99.90;;;;;;5022625;28;19929;-68
2022/09/06 07:00:30;;;;;;;;;;;19.50;99.90;;;;;;5024230;28;19928;-69
2022/09/06 07:02:58;;;;;;;;;;;19.60;99.90;;;;;;5018382;28;19991;-68
2022/09/06 07:05:25;;;;;;;;;;;19.60;99.90;;;;;;5020095;28;19932;-68
2022/09/06 07:07:53;;;;;;;;;;;19.70;99.90;;;;;;5024804;28;20338;-66
2022/09/06 07:10:20;;;;;;;;;;;19.80;99.90;;;;;;5026757;28;19925;-69
2022/09/06 07:12:46;;;;;;;;;;;19.90;99.90;;;;;;5028510;28;19925;-68
2022/09/06 07:15:14;;;;;;;;;;;20.00;99.90;;;;;;5028333;28;19933;-68
2022/09/06 07:17:40;;;;;;;;;;;20.10;99.90;;;;;;5021364;28;20026;-68
2022/09/06 07:20:08;;;;;;;;;;;20.10;99.90;;;;;;5032527;28;19925;-68
2022/09/06 07:22:34;;;;;;;;;;;20.30;99.90;;;;;;5026024;28;20015;-67
2022/09/06 07:25:03;;;;;;;;;;;20.40;99.90;;;;;;5029636;28;19924;-68
2022/09/06 07:27:30;;;;;;;;;;;20.50;99.90;;;;;;5025488;28;20327;-66
2022/09/06 07:29:56;;;;;;;;;;;20.60;99.90;;;;;;5028797;28;19931;-68
2022/09/06 07:32:23;;;;;;;;;;;20.70;99.90;;;;;;5030785;28;19983;-67
2022/09/06 07:34:50;;;;;;;;;;;20.80;99.90;;;;;;5020648;28;19932;-69
2022/09/06 07:37:17;;;;;;;;;;;20.90;99.90;;;;;;5028524;28;20346;-68
2022/09/06 07:39:44;;;;;;;;;;;21.00;99.90;;;;;;5028000;28;20381;-68
2022/09/06 07:42:12;;;;;;;;;;;21.10;99.90;;;;;;5030376;28;19924;-68
2022/09/06 07:44:39;;;;;;;;;;;21.10;99.90;;;;;;5025720;28;19934;-69
2022/09/06 07:47:07;;;;;;;;;;;21.20;99.90;;;;;;5025047;28;19952;-68
2022/09/06 07:49:33;;;;;;;;;;;21.30;99.90;;;;;;5028684;28;20506;-68
2022/09/06 07:52:00;;;;;;;;;;;21.40;99.90;;;;;;5024326;28;19929;-69
2022/09/06 07:54:27;;;;;;;;;;;21.60;99.90;;;;;;5028672;28;19929;-68
2022/09/06 07:56:54;;;;;;;;;;;21.60;99.90;;;;;;5024555;28;19929;-68
2022/09/06 07:59:22;;;;;;;;;;;21.70;99.90;;;;;;5028497;28;20351;-68
2022/09/06 08:01:49;;;;;;;;;;;21.80;99.90;;;;;;5026981;28;19925;-68
2022/09/06 08:04:15;;;;;;;;;;;21.90;99.90;;;;;;5031227;28;19932;-68
2022/09/06 08:06:45;;;;;;;;;;;21.90;99.90;;;;;;5026601;28;20332;-68
2022/09/06 08:09:12;;;;;;;;;;;22.00;99.90;;;;;;5036922;28;20023;-68
2022/09/06 08:11:39;;;;;;;;;;;22.00;99.90;;;;;;5030925;28;19925;-69
2022/09/06 08:14:07;;;;;;;;;;;22.00;99.90;;;;;;5024473;28;19975;-68
2022/09/06 08:16:36;;;;;;;;;;;22.10;99.90;;;;;;5033881;28;19928;-69
2022/09/06 08:19:06;;;;;;;;;;;22.20;99.90;;;;;;5026637;28;19928;-68
2022/09/06 08:21:33;;;;;;;;;;;22.30;99.90;;;;;;5006670;28;20304;-69
2022/09/06 08:24:01;;;;;;;;;;;22.40;99.90;;;;;;5026904;28;19979;-68
2022/09/06 08:26:28;;;;;;;;;;;22.50;99.90;;;;;;5023716;28;19967;-69
2022/09/06 08:28:56;;;;;;;;;;;22.60;99.90;;;;;;5029317;28;19925;-69
2022/09/06 08:31:23;;;;;;;;;;;22.60;99.90;;;;;;5027389;28;19926;-69
2022/09/06 08:33:52;;;;;;;;;;;22.70;99.90;;;;;;5033363;28;19925;-69
2022/09/06 08:36:19;;;;;;;;;;;22.90;99.90;;;;;;5027906;28;19925;-70
2022/09/06 08:38:45;;;;;;;;;;;22.90;99.90;;;;;;5026648;28;19926;-68
2022/09/06 08:41:19;;;;;;;;;;;23.00;99.90;;;;;;5026720;28;20044;-69
2022/09/06 08:43:48;;;;;;;;;;;23.10;99.90;;;;;;5023976;28;19929;-69
2022/09/06 08:46:15;;;;;;;;;;;23.20;99.90;;;;;;5027366;28;19925;-69
2022/09/06 08:48:42;;;;;;;;;;;23.30;99.90;;;;;;5024860;28;19928;-68
2022/09/06 08:51:22;;;;;;;;;;;23.40;99.90;;;;;;5030451;28;19929;-69
2022/09/06 08:53:49;;;;;;;;;;;23.40;99.90;;;;;;5025477;28;20388;-70
2022/09/06 08:56:19;;;;;;;;;;;23.50;99.90;;;;;;5022927;28;19936;-71
2022/09/06 08:58:56;;;;;;;;;;;23.60;99.90;;;;;;5018406;28;19925;-71
2022/09/06 09:01:24;;;;;;;;;;;23.70;99.90;;;;;;5017070;28;19925;-71
2022/09/06 09:03:52;;;;;;;;;;;23.70;99.90;;;;;;5020100;28;19932;-71
2022/09/06 09:06:22;;;;;;;;;;;23.80;99.90;;;;;;5018969;28;19926;-70
2022/09/06 09:08:53;;;;;;;;;;;23.90;99.90;;;;;;5023469;28;19925;-70
2022/09/06 09:11:22;;;;;;;;;;;24.00;99.90;;;;;;5019080;28;19925;-70
2022/09/06 09:13:53;;;;;;;;;;;24.20;99.90;;;;;;5017457;28;19933;-70
2022/09/06 09:16:20;;;;;;;;;;;24.30;99.90;;;;;;5026240;28;19925;-70
2022/09/06 09:18:49;;;;;;;;;;;24.40;99.90;;;;;;5024634;28;19926;-68
2022/09/06 09:21:18;;;;;;;;;;;24.50;99.90;;;;;;5021970;28;19925;-70
2022/09/06 09:23:51;;;;;;;;;;;24.70;99.90;;;;;;5029879;28;19978;-69
2022/09/06 09:26:18;;;;;;;;;;;24.80;99.90;;;;;;5022994;28;19925;-70
2022/09/06 09:28:59;;;;;;;;;;;24.80;99.90;;;;;;5009793;28;19975;-68
2022/09/06 09:31:33;;;;;;;;;;;24.90;99.90;;;;;;5033908;28;19933;-70
2022/09/06 09:34:03;;;;;;;;;;;25.10;99.90;;;;;;5037737;28;19925;-70
2022/09/06 09:36:30;;;;;;;;;;;25.10;99.90;;;;;;5013124;28;19925;-68
2022/09/06 09:38:58;;;;;;;;;;;25.30;99.90;;;;;;5012312;28;19933;-68
2022/09/06 09:41:28;;;;;;;;;;;25.40;99.90;;;;;;5013285;28;20351;-67
2022/09/06 09:43:56;;;;;;;;;;;25.50;99.90;;;;;;5013224;28;20032;-69
2022/09/06 09:46:31;;;;;;;;;;;25.70;99.90;;;;;;5013663;28;19932;-69
2022/09/06 09:49:03;;;;;;;;;;;25.70;99.90;;;;;;5013527;28;19933;-70
2022/09/06 09:51:30;;;;;;;;;;;25.90;99.90;;;;;;5013675;28;19925;-70
2022/09/06 09:53:59;;;;;;;;;;;26.00;99.90;;;;;;5010223;28;19926;-69
2022/09/06 09:56:28;;;;;;;;;;;26.00;99.90;;;;;;4994231;28;19937;-70
2022/09/06 09:58:55;;;;;;;;;;;26.10;99.90;;;;;;5009339;28;20368;-70
2022/09/06 10:01:25;;;;;;;;;;;26.20;99.90;;;;;;4993948;28;19926;-70
2022/09/06 10:03:52;;;;;;;;;;;26.20;99.90;;;;;;5010352;28;19932;-70
2022/09/06 10:06:25;;;;;;;;;;;26.30;99.90;;;;;;5010300;28;19932;-70
2022/09/06 10:08:53;;;;;;;;;;;26.40;99.90;;;;;;5015892;28;19925;-68
2022/09/06 10:11:35;;;;;;;;;;;26.50;99.90;;;;;;4994062;28;19926;-70
2022/09/06 10:14:11;;;;;;;;;;;26.50;99.90;;;;;;4993570;28;19925;-70
2022/09/06 10:16:42;;;;;;;;;;;26.60;99.90;;;;;;5002069;28;19926;-70
2022/09/06 10:19:21;;;;;;;;;;;26.70;99.90;;;;;;5004073;28;19926;-70
2022/09/06 10:21:48;;;;;;;;;;;26.80;99.90;;;;;;5004421;28;20343;-70
2022/09/06 10:24:21;;;;;;;;;;;27.00;99.90;;;;;;5010143;28;19930;-71
2022/09/06 10:26:50;;;;;;;;;;;27.20;99.90;;;;;;5011736;28;19926;-70
2022/09/06 10:29:24;;;;;;;;;;;27.30;99.90;;;;;;5006120;28;19929;-70
2022/09/06 10:31:58;;;;;;;;;;;27.30;99.90;;;;;;4999283;28;19987;-70
2022/09/06 10:34:34;;;;;;;;;;;27.40;99.90;;;;;;5004700;28;19934;-69
2022/09/06 10:37:05;;;;;;;;;;;27.50;99.90;;;;;;5007031;28;20305;-70
2022/09/06 10:39:37;;;;;;;;;;;27.70;99.90;;;;;;5006409;28;19926;-70
2022/09/06 10:42:11;;;;;;;;;;;27.70;99.90;;;;;;5010198;28;19930;-70
2022/09/06 10:44:45;;;;;;;;;;;27.80;99.90;;;;;;5008962;28;19941;-70
2022/09/06 10:47:14;;;;;;;;;;;27.90;99.90;;;;;;5008396;28;19984;-70
2022/09/06 10:49:43;;;;;;;;;;;28.00;99.90;;;;;;4996321;28;19948;-70
2022/09/06 10:52:12;;;;;;;;;;;28.10;99.90;;;;;;5005093;28;19925;-70
2022/09/06 10:54:40;;;;;;;;;;;28.30;99.90;;;;;;5009325;28;19926;-70
2022/09/06 10:57:11;;;;;;;;;;;28.60;99.90;;;;;;5015337;28;19932;-69
2022/09/06 10:59:40;;;;;;;;;;;28.70;99.90;;;;;;5015770;28;19975;-70
2022/09/06 11:02:15;;;;;;;;;;;29.00;99.90;;;;;;5022751;28;19925;-69
2022/09/06 11:04:44;;;;;;;;;;;29.20;99.90;;;;;;5018303;28;19933;-70
2022/09/06 11:07:15;;;;;;;;;;;29.30;99.90;;;;;;5016210;28;20393;-69
2022/09/06 11:09:44;;;;;;;;;;;29.60;99.90;;;;;;5016005;28;19925;-68
2022/09/06 11:12:14;;;;;;;;;;;29.60;99.90;;;;;;5017109;28;19945;-68
2022/09/06 11:14:41;;;;;;;;;;;29.90;99.90;;;;;;5016004;28;19926;-68
2022/09/06 11:17:13;;;;;;;;;;;29.80;99.90;;;;;;5013215;28;19929;-68
2022/09/06 11:19:43;;;;;;;;;;;29.90;99.90;;;;;;5015862;28;19925;-69
2022/09/06 11:22:37;;;;;;;;;;;30.10;99.90;;;;;;5012553;28;19925;-69
2022/09/06 11:25:27;;;;;;;;;;;30.20;99.90;;;;;;5014203;28;19929;-70
2022/09/06 11:27:54;;;;;;;;;;;31.30;99.90;;;;;;5009287;28;20357;-69
2022/09/06 11:30:21;;;;;;;;;;;35.90;99.90;;;;;;5018529;28;19925;-69
2022/09/06 11:32:50;;;;;;;;;;;37.10;99.90;;;;;;5015638;28;19929;-68
2022/09/06 11:35:24;;;;;;;;;;;39.30;99.90;;;;;;5015822;28;19937;-69
2022/09/06 11:37:59;;;;;;;;;;;38.10;99.90;;;;;;5015752;28;19926;-69
2022/09/06 11:40:28;;;;;;;;;;;39.20;99.90;;;;;;5027754;28;19925;-70
2022/09/06 11:43:09;;;;;;;;;;;39.50;99.90;;;;;;5023983;28;19925;-70
2022/09/06 11:45:40;;;;;;;;;;;39.70;99.90;;;;;;5020816;28;19925;-70
2022/09/06 11:48:21;;;;;;;;;;;40.60;99.90;;;;;;5025388;28;19936;-69
2022/09/06 11:51:05;;;;;;;;;;;42.00;99.90;;;;;;5020362;28;19933;-70
2022/09/06 11:53:33;;;;;;;;;;;42.00;98.10;;;;;;5019342;28;20012;-70
2022/09/06 11:56:11;;;;;;;;;;;42.30;95.00;;;;;;5022492;28;19989;-70
2022/09/06 11:58:45;;;;;;;;;;;42.80;94.10;;;;;;5021045;28;19925;-71
2022/09/06 12:01:31;;;;;;;;;;;44.20;93.10;;;;;;5022932;28;19930;-71
2022/09/06 12:04:02;;;;;;;;;;;44.80;93.20;;;;;;5029603;28;19924;-71
2022/09/06 12:06:32;;;;;;;;;;;43.40;91.10;;;;;;5020459;28;19932;-70
2022/09/06 12:08:58;;;;;;;;;;;42.20;92.00;;;;;;5029966;28;19928;-71
2022/09/06 12:11:33;;;;;;;;;;;41.80;92.30;;;;;;5025499;28;19925;-70
2022/09/06 12:14:02;;;;;;;;;;;41.80;91.20;;;;;;5032869;28;19978;-70
2022/09/06 12:16:44;;;;;;;;;;;42.10;91.30;;;;;;5032310;28;20351;-71
2022/09/06 12:19:30;;;;;;;;;;;40.60;90.90;;;;;;4998178;28;19925;-71
2022/09/06 12:21:59;;;;;;;;;;;41.10;91.50;;;;;;5010609;28;19925;-70
2022/09/06 12:24:44;;;;;;;;;;;42.60;90.90;;;;;;5029767;28;19968;-70
2022/09/06 12:27:15;;;;;;;;;;;41.70;90.20;;;;;;5026431;28;19925;-71
2022/09/06 12:29:50;;;;;;;;;;;41.40;90.30;;;;;;5015453;28;19925;-70
2022/09/06 12:32:19;;;;;;;;;;;41.10;89.90;;;;;;5020031;28;19935;-71
2022/09/06 12:34:46;;;;;;;;;;;42.80;90.20;;;;;;5015033;28;19925;-69
2022/09/06 12:37:14;;;;;;;;;;;42.80;89.40;;;;;;5019950;28;19929;-69
2022/09/06 12:39:55;;;;;;;;;;;41.90;87.00;;;;;;5012497;28;19925;-69
2022/09/06 12:42:22;;;;;;;;;;;40.40;88.60;;;;;;5026919;28;19925;-69
2022/09/06 12:44:51;;;;;;;;;;;40.60;89.70;;;;;;5027524;28;19999;-69
2022/09/06 12:47:21;;;;;;;;;;;39.50;90.10;;;;;;5015194;28;19936;-70
2022/09/06 12:50:03;;;;;;;;;;;40.30;90.50;;;;;;5008584;28;19925;-70
2022/09/06 12:52:32;;;;;;;;;;;39.50;90.10;;;;;;5019388;28;19925;-70
2022/09/06 12:54:59;;;;;;;;;;;39.90;90.10;;;;;;5016909;28;19929;-69
2022/09/06 12:57:26;;;;;;;;;;;39.30;90.10;;;;;;5024823;28;20403;-70
2022/09/06 12:59:54;;;;;;;;;;;38.80;90.10;;;;;;5015049;28;19948;-70
2022/09/06 13:02:23;;;;;;;;;;;39.80;90.40;;;;;;5024217;28;19955;-70
2022/09/06 13:04:52;;;;;;;;;;;39.80;90.30;;;;;;5024522;28;19971;-70
2022/09/06 13:07:20;;;;;;;;;;;40.10;90.20;;;;;;5022772;28;19929;-70
2022/09/06 13:09:49;;;;;;;;;;;40.50;90.10;;;;;;5026743;28;19929;-70
2022/09/06 13:12:20;;;;;;;;;;;38.80;90.30;;;;;;5022931;28;19925;-70
2022/09/06 13:14:46;;;;;;;;;;;38.70;90.10;;;;;;5028660;28;19985;-70
2022/09/06 13:17:22;;;;;;;;;;;38.90;89.90;;;;;;5027907;28;19925;-71
2022/09/06 13:19:49;;;;;;;;;;;39.50;88.20;;;;;;5028171;28;20272;-70
2022/09/06 13:22:31;;;;;;;;;;;39.10;86.70;;;;;;5022444;28;19929;-70
2022/09/06 13:24:59;;;;;;;;;;;39.40;86.90;;;;;;5020794;28;19929;-70
2022/09/06 13:27:32;;;;;;;;;;;38.70;86.30;;;;;;5025675;28;19979;-71
2022/09/06 13:30:00;;;;;;;;;;;39.30;87.50;;;;;;5019297;28;20363;-70
2022/09/06 13:32:27;;;;;;;;;;;39.30;86.10;;;;;;5042135;28;19929;-70
2022/09/06 13:34:56;;;;;;;;;;;38.60;86.20;;;;;;5021795;28;19925;-70
2022/09/06 13:37:24;;;;;;;;;;;39.70;87.50;;;;;;5017504;28;19932;-70
2022/09/06 13:39:51;;;;;;;;;;;39.60;87.00;;;;;;5022278;28;20308;-70
2022/09/06 13:42:27;;;;;;;;;;;39.80;87.10;;;;;;5025185;28;19983;-70
2022/09/06 13:44:54;;;;;;;;;;;40.20;87.50;;;;;;5021000;28;19947;-70
2022/09/06 13:47:21;;;;;;;;;;;41.20;87.50;;;;;;5020642;28;19925;-70
2022/09/06 13:49:48;;;;;;;;;;;42.20;86.40;;;;;;5014040;28;19925;-69
2022/09/06 13:52:15;;;;;;;;;;;42.80;85.90;;;;;;5027616;28;19924;-70
2022/09/06 13:54:41;;;;;;;;;;;43.00;85.50;;;;;;5023906;28;19925;-70
2022/09/06 13:57:08;;;;;;;;;;;43.00;85.40;;;;;;5026272;28;19936;-69
2022/09/06 13:59:37;;;;;;;;;;;42.50;85.30;;;;;;5014934;28;19953;-66
2022/09/06 14:02:04;;;;;;;;;;;42.80;84.60;;;;;;5021447;28;20011;-70
2022/09/06 14:04:31;;;;;;;;;;;41.90;82.40;;;;;;5024757;28;19925;-70
2022/09/06 14:06:58;;;;;;;;;;;41.50;82.70;;;;;;5019220;28;19929;-70
2022/09/06 14:09:25;;;;;;;;;;;41.70;82.00;;;;;;5021432;28;19932;-69
2022/09/06 14:11:52;;;;;;;;;;;41.90;82.30;;;;;;5025148;28;19937;-69
2022/09/06 14:14:18;;;;;;;;;;;41.80;82.20;;;;;;5024269;28;19929;-68
2022/09/06 14:16:47;;;;;;;;;;;41.50;81.80;;;;;;5023824;28;19929;-71
2022/09/06 14:19:14;;;;;;;;;;;42.00;82.40;;;;;;5020619;28;20385;-71
2022/09/06 14:21:41;;;;;;;;;;;42.80;82.30;;;;;;5025563;28;19939;-70
2022/09/06 14:24:07;;;;;;;;;;;42.80;82.50;;;;;;5028245;28;19948;-68
2022/09/06 14:26:35;;;;;;;;;;;42.10;83.10;;;;;;5030427;28;19925;-69